createdAt,value
2023-04-17T00:00:20.462Z,96630.78
2023-04-17T00:05:24.066Z,96619.19
2023-04-17T00:10:28.390Z,96618.91
2023-04-17T00:15:31.246Z,96621.34
2023-04-17T00:20:34.301Z,96620.03
2023-04-17T00:25:38.489Z,96620.84
2023-04-17T00:30:41.348Z,96621.63
2023-04-17T00:35:44.188Z,96611.91
2023-04-17T00:40:48.828Z,96608.97
2023-04-17T00:45:51.985Z,96608.97
2023-04-17T00:50:55.286Z,96613.53
2023-04-17T00:56:00.358Z,96597.63
2023-04-17T01:01:03.281Z,96609.22
2023-04-17T01:06:06.561Z,96593.03
2023-04-17T01:11:11.371Z,96601.69
2023-04-17T01:16:14.632Z,96594.66
2023-04-17T01:21:18.014Z,96583.84
2023-04-17T01:26:23.166Z,96591.94
2023-04-17T01:31:27.579Z,96586.00
2023-04-17T01:36:31.632Z,96588.69
2023-04-17T01:41:36.407Z,96586.81
2023-04-17T01:46:39.338Z,96590.06
2023-04-17T01:51:42.233Z,96585.50
2023-04-17T01:56:46.742Z,96591.69
2023-04-17T02:01:50.514Z,96579.03
2023-04-17T02:06:53.424Z,96588.19
2023-04-17T02:11:57.958Z,96579.03
2023-04-17T02:17:00.798Z,96580.09
2023-04-17T02:22:03.721Z,96579.81
2023-04-17T02:27:07.849Z,96585.50
2023-04-17T02:32:10.809Z,96578.75
2023-04-17T02:37:13.815Z,96566.06
2023-04-17T02:42:17.990Z,96570.91
2023-04-17T02:47:21.864Z,96569.56
2023-04-17T02:52:24.817Z,96578.19
2023-04-17T02:57:28.991Z,96565.53
2023-04-17T03:02:32.068Z,96570.91
2023-04-17T03:07:34.997Z,96571.72
2023-04-17T03:12:40.298Z,96567.94
2023-04-17T03:17:43.203Z,96557.97
2023-04-17T03:22:46.128Z,96557.13
2023-04-17T03:27:50.288Z,96552.56
2023-04-17T03:32:53.210Z,96556.09
2023-04-17T03:37:56.107Z,96559.84
2023-04-17T03:43:00.298Z,96559.03
2023-04-17T03:48:03.292Z,96555.28
2023-04-17T03:53:06.232Z,96558.78
2023-04-17T03:58:10.457Z,96549.63
2023-04-17T04:03:13.512Z,96551.50
2023-04-17T04:08:16.558Z,96550.41
2023-04-17T04:13:20.708Z,96550.69
2023-04-17T04:18:23.545Z,96540.16
2023-04-17T04:23:27.924Z,96546.34
2023-04-17T04:28:33.062Z,96540.16
2023-04-17T04:33:36.032Z,96538.81
2023-04-17T04:38:38.979Z,96545.84
2023-04-17T04:43:43.652Z,96551.50
2023-04-17T04:48:46.438Z,96547.72
2023-04-17T04:53:49.650Z,96546.09
2023-04-17T04:58:53.838Z,96555.81
2023-04-17T05:03:57.040Z,96553.13
2023-04-17T05:09:00.053Z,96550.41
2023-04-17T05:14:04.258Z,96542.88
2023-04-17T05:19:07.056Z,96539.34
2023-04-17T05:24:10.020Z,96541.81
2023-04-17T05:29:14.728Z,96538.28
2023-04-17T05:34:17.633Z,96538.03
2023-04-17T05:39:20.617Z,96536.41
2023-04-17T05:44:24.798Z,96533.72
2023-04-17T05:49:27.646Z,96538.56
2023-04-17T05:54:30.470Z,96537.53
2023-04-17T05:59:34.656Z,96544.53
2023-04-17T06:04:37.692Z,96547.78
2023-04-17T06:09:42.405Z,96550.50
2023-04-17T06:14:46.665Z,96543.22
2023-04-17T06:19:49.501Z,96548.03
2023-04-17T06:24:52.334Z,96544.53
2023-04-17T06:29:56.495Z,96550.75
2023-04-17T06:34:59.832Z,96553.47
2023-04-17T06:40:03.483Z,96548.91
2023-04-17T06:45:08.989Z,96551.66
2023-04-17T06:50:11.858Z,96552.97
2023-04-17T06:55:14.830Z,96549.19
2023-04-17T07:00:20.307Z,96547.56
2023-04-17T07:05:23.157Z,96545.66
2023-04-17T07:10:25.975Z,96553.53
2023-04-17T07:15:31.273Z,96547.63
2023-04-17T07:20:34.202Z,96548.69
2023-04-17T07:25:37.011Z,96560.34
2023-04-17T07:30:42.515Z,96545.19
2023-04-17T07:35:45.410Z,96554.38
2023-04-17T07:40:48.269Z,96541.72
2023-04-17T07:45:52.494Z,96540.50
2023-04-17T07:50:55.503Z,96544.16
2023-04-17T07:55:59.269Z,96543.41
2023-04-17T08:01:06.531Z,96542.09
2023-04-17T08:06:09.421Z,96539.75
2023-04-17T08:11:12.255Z,96535.44
2023-04-17T08:16:18.410Z,96530.03
2023-04-17T08:21:21.204Z,96534.09
2023-04-17T08:26:24.025Z,96540.63
2023-04-17T08:31:28.313Z,96529.50
2023-04-17T08:36:31.241Z,96536.84
2023-04-17T08:41:40.697Z,96537.91
2023-04-17T08:46:45.291Z,96530.06
2023-04-17T08:51:48.347Z,96529.28
2023-04-17T08:56:51.231Z,96523.84
2023-04-17T09:02:06.210Z,96521.69
2023-04-17T09:07:10.573Z,96534.13
2023-04-17T09:12:13.466Z,96517.63
2023-04-17T09:17:19.006Z,96517.13
2023-04-17T09:22:23.405Z,96515.47
2023-04-17T09:27:27.800Z,96510.06
2023-04-17T09:32:33.367Z,96511.66
2023-04-17T09:37:50.619Z,96516.53
2023-04-17T09:42:58.103Z,96515.47
2023-04-17T09:48:02.392Z,96515.44
2023-04-17T09:53:06.178Z,96511.66
2023-04-17T09:58:09.044Z,96509.53
2023-04-17T10:03:15.132Z,96512.75
2023-04-17T10:08:17.987Z,96522.25
2023-04-17T10:13:22.698Z,96517.91
2023-04-17T10:18:28.224Z,96511.66
2023-04-17T10:23:34.729Z,96504.63
2023-04-17T10:28:49.864Z,96500.25
2023-04-17T10:33:55.123Z,96504.81
2023-04-17T10:39:13.365Z,96489.91
2023-04-17T10:44:16.523Z,96495.94
2023-04-17T10:49:22.368Z,96492.41
2023-04-17T10:54:25.253Z,96479.13
2023-04-17T10:59:30.122Z,96481.25
2023-04-17T11:04:34.812Z,96487.75
2023-04-17T11:09:37.883Z,96479.84
2023-04-17T11:14:42.583Z,96482.81
2023-04-17T11:19:47.812Z,96480.69
2023-04-17T11:24:52.269Z,96483.09
2023-04-17T11:29:55.117Z,96479.53
2023-04-17T11:34:59.271Z,96475.22
2023-04-17T11:40:07.648Z,96475.19
2023-04-17T11:45:11.582Z,96469.53
2023-04-17T11:50:17.923Z,96466.56
2023-04-17T11:55:21.045Z,96467.13
2023-04-17T12:00:29.019Z,96472.22
2023-04-17T12:05:33.433Z,96471.44
2023-04-17T12:10:41.055Z,96472.78
2023-04-17T12:15:43.992Z,96477.41
2023-04-17T12:20:48.627Z,96471.97
2023-04-17T12:25:51.475Z,96462.22
2023-04-17T12:30:54.303Z,96459.47
2023-04-17T12:35:58.893Z,96456.75
2023-04-17T12:41:01.804Z,96449.19
2023-04-17T12:46:04.874Z,96438.59
2023-04-17T12:51:09.390Z,96442.97
2023-04-17T12:56:14.588Z,96433.22
2023-04-17T13:01:17.613Z,96429.97
2023-04-17T13:06:22.385Z,96421.25
2023-04-17T13:11:25.194Z,96411.25
2023-04-17T13:16:28.018Z,96414.19
2023-04-17T13:21:32.250Z,96410.34
2023-04-17T13:26:35.852Z,96403.53
2023-04-17T13:31:39.299Z,96406.50
2023-04-17T13:36:44.969Z,96410.63
2023-04-17T13:41:48.914Z,96409.84
2023-04-17T13:46:52.118Z,96407.94
2023-04-17T13:51:56.367Z,96402.78
2023-04-17T13:56:59.256Z,96400.59
2023-04-17T14:02:04.124Z,96382.38
2023-04-17T14:07:08.452Z,96392.09
2023-04-17T14:12:11.545Z,96389.44
2023-04-17T14:17:14.357Z,96383.75
2023-04-17T14:22:18.515Z,96384.56
2023-04-17T14:27:21.316Z,96378.06
2023-04-17T14:32:24.166Z,96375.84
2023-04-17T14:37:29.144Z,96382.56
2023-04-17T14:42:36.001Z,96367.41
2023-04-17T14:47:50.172Z,96358.41
2023-04-17T14:52:55.701Z,96366.69
2023-04-17T14:57:59.503Z,96363.31
2023-04-17T15:03:02.534Z,96362.09
2023-04-17T15:08:07.174Z,96361.44
2023-04-17T15:13:10.165Z,96355.13
2023-04-17T15:18:13.820Z,96350.75
2023-04-17T15:23:18.869Z,96343.75
2023-04-17T15:28:21.815Z,96338.34
2023-04-17T15:33:24.660Z,96338.44
2023-04-17T15:38:29.096Z,96329.19
2023-04-17T15:43:32.189Z,96316.84
2023-04-17T15:48:35.080Z,96319.34
2023-04-17T15:53:39.573Z,96323.53
2023-04-17T15:58:43.623Z,96326.72
2023-04-17T16:03:46.563Z,96320.19
2023-04-17T16:08:50.834Z,96316.06
2023-04-17T16:13:53.629Z,96320.88
2023-04-17T16:18:56.460Z,96313.91
2023-04-17T16:24:01.057Z,96316.03
2023-04-17T16:29:04.872Z,96320.97
2023-04-17T16:34:09.865Z,96300.22
2023-04-17T16:39:14.464Z,96315.94
2023-04-17T16:44:17.420Z,96312.22
2023-04-17T16:49:21.181Z,96308.25
2023-04-17T16:54:26.214Z,96312.97
2023-04-17T16:59:29.222Z,96316.47
2023-04-17T17:04:32.127Z,96325.44
2023-04-17T17:09:36.356Z,96319.94
2023-04-17T17:14:39.448Z,96324.25
2023-04-17T17:19:43.137Z,96325.22
2023-04-17T17:24:47.292Z,96322.94
2023-04-17T17:29:50.134Z,96323.59
2023-04-17T17:34:53.536Z,96322.06
2023-04-17T17:39:58.565Z,96326.22
2023-04-17T17:45:01.489Z,96327.91
2023-04-17T17:50:05.054Z,96328.28
2023-04-17T17:55:10.327Z,96327.50
2023-04-17T18:00:16.185Z,96326.22
2023-04-17T18:05:19.126Z,96320.00
2023-04-17T18:10:23.496Z,96328.75
2023-04-17T18:15:26.967Z,96334.72
2023-04-17T18:20:31.197Z,96336.94
2023-04-17T18:25:39.251Z,96335.63
2023-04-17T18:30:42.338Z,96332.66
2023-04-17T18:35:45.236Z,96338.41
2023-04-17T18:40:54.533Z,96335.72
2023-04-17T18:45:57.899Z,96330.34
2023-04-17T18:51:09.426Z,96334.94
2023-04-17T18:56:15.056Z,96334.69
2023-04-17T19:01:18.554Z,96342.59
2023-04-17T19:06:21.915Z,96348.56
2023-04-17T19:11:28.479Z,96341.81
2023-04-17T19:16:31.669Z,96339.91
2023-04-17T19:21:36.818Z,96352.09
2023-04-17T19:26:41.373Z,96350.75
2023-04-17T19:31:44.737Z,96347.53
2023-04-17T19:36:47.688Z,96350.25
2023-04-17T19:41:51.944Z,96355.94
2023-04-17T19:46:54.820Z,96355.69
2023-04-17T19:51:57.626Z,96362.19
2023-04-17T19:57:02.329Z,96360.00
2023-04-17T20:02:05.719Z,96362.16
2023-04-17T20:07:09.309Z,96351.91
2023-04-17T20:12:13.561Z,96362.19
2023-04-17T20:17:16.563Z,96361.66
2023-04-17T20:22:19.789Z,96364.63
2023-04-17T20:27:24.111Z,96362.22
2023-04-17T20:32:28.148Z,96365.47
2023-04-17T20:37:31.520Z,96365.72
2023-04-17T20:42:36.730Z,96371.41
2023-04-17T20:47:54.970Z,96367.38
2023-04-17T20:52:59.266Z,96369.25
2023-04-17T20:58:05.374Z,96370.34
2023-04-17T21:03:08.435Z,96379.00
2023-04-17T21:08:11.653Z,96373.84
2023-04-17T21:13:15.788Z,96373.06
2023-04-17T21:18:19.026Z,96376.31
2023-04-17T21:23:22.061Z,96380.09
2023-04-17T21:28:26.258Z,96376.59
2023-04-17T21:33:29.057Z,96378.75
2023-04-17T21:38:31.917Z,96383.38
2023-04-17T21:43:36.144Z,96375.78
2023-04-17T21:48:39.643Z,96386.59
2023-04-17T21:53:43.845Z,96394.19
2023-04-17T21:58:48.002Z,96386.06
2023-04-17T22:03:50.882Z,96390.13
2023-04-17T22:08:53.692Z,96388.53
2023-04-17T22:13:57.816Z,96384.47
2023-04-17T22:19:00.664Z,96381.75
2023-04-17T22:24:03.485Z,96384.47
2023-04-17T22:29:07.706Z,96379.59
2023-04-17T22:34:10.585Z,96378.78
2023-04-17T22:39:13.426Z,96384.72
2023-04-17T22:44:17.562Z,96374.16
2023-04-17T22:49:20.402Z,96380.41
2023-04-17T22:54:23.514Z,96388.78
2023-04-17T22:59:29.200Z,96399.59
2023-04-17T23:04:32.045Z,96382.84
2023-04-17T23:09:34.877Z,96391.22
2023-04-17T23:14:39.001Z,96380.66
2023-04-17T23:19:41.828Z,96385.28
2023-04-17T23:24:44.699Z,96389.06
2023-04-17T23:29:48.883Z,96388.53
2023-04-17T23:34:51.743Z,96386.06
2023-04-17T23:39:54.649Z,96393.13
2023-04-17T23:44:58.921Z,96387.16
2023-04-17T23:50:01.733Z,96385.53
2023-04-17T23:55:05.703Z,96385.81
